Sao Joao do Rio do Peixe, Brazil
Current Conditions -  °F | °C
As of 12:00 AM on Wednesday 28 Jan 2015 (Local Time) from SBJU Reporting Station
Few Clouds Few Clouds  
Wind Chill: 86°   Ceiling: Unl
Heat Index: 86°   Visibility: 6mi
Dew Point: 59°   Wind: 0mph
Humidity: 40%   Direction: NA
Pressure: 29.94"   Gusts: NA
Location:  6.73°S, 38.45°W
Report Text: SBJU 280300Z 00000KT 9999 FEW022 30/15 Q1014
Loading
Personal Weather Stations






























Interactive Weather Map New forecast layout! Learn more

10-Day Weather Forecast

Advertisements
Track Severe Weather on mobile